sensor_id;sensor_type;location;lat;lon;timestamp;temperature;humidity
41630;DHT22;27322;49.488;8.480;2022-11-15T00:01:35;11.60;99.90
41630;DHT22;27322;49.488;8.480;2022-11-15T00:04:04;11.60;99.90
41630;DHT22;27322;49.488;8.480;2022-11-15T00:06:30;11.60;99.90
41630;DHT22;27322;49.488;8.480;2022-11-15T00:08:58;11.60;99.90
41630;DHT22;27322;49.488;8.480;2022-11-15T00:11:24;11.60;99.90
41630;DHT22;27322;49.488;8.480;2022-11-15T00:13:49;11.60;99.90
41630;DHT22;27322;49.488;8.480;2022-11-15T00:16:15;11.60;99.90
41630;DHT22;27322;49.488;8.480;2022-11-15T00:18:40;11.60;99.90
41630;DHT22;27322;49.488;8.480;2022-11-15T00:21:09;11.60;99.90
41630;DHT22;27322;49.488;8.480;2022-11-15T00:23:36;11.60;99.90
41630;DHT22;27322;49.488;8.480;2022-11-15T00:26:01;11.60;99.90
41630;DHT22;27322;49.488;8.480;2022-11-15T00:28:27;11.60;99.90
41630;DHT22;27322;49.488;8.480;2022-11-15T00:30:53;11.60;99.90
41630;DHT22;27322;49.488;8.480;2022-11-15T00:33:18;11.50;99.90
41630;DHT22;27322;49.488;8.480;2022-11-15T00:35:44;11.50;99.90
41630;DHT22;27322;49.488;8.480;2022-11-15T00:38:09;11.50;99.90
41630;DHT22;27322;49.488;8.480;2022-11-15T00:40:35;11.60;99.90
41630;DHT22;27322;49.488;8.480;2022-11-15T00:43:00;11.50;99.90
41630;DHT22;27322;49.488;8.480;2022-11-15T00:45:26;11.50;99.90
41630;DHT22;27322;49.488;8.480;2022-11-15T00:47:52;11.50;99.90
41630;DHT22;27322;49.488;8.480;2022-11-15T00:50:18;11.50;99.90
41630;DHT22;27322;49.488;8.480;2022-11-15T00:52:44;11.50;99.90
41630;DHT22;27322;49.488;8.480;2022-11-15T00:55:17;11.50;99.90
41630;DHT22;27322;49.488;8.480;2022-11-15T00:57:43;11.50;99.90
41630;DHT22;27322;49.488;8.480;2022-11-15T01:00:10;11.50;99.90
41630;DHT22;27322;49.488;8.480;2022-11-15T01:02:35;11.50;99.90
41630;DHT22;27322;49.488;8.480;2022-11-15T01:05:01;11.50;99.90
41630;DHT22;27322;49.488;8.480;2022-11-15T01:07:27;11.50;99.90
41630;DHT22;27322;49.488;8.480;2022-11-15T01:09:52;11.40;99.90
41630;DHT22;27322;49.488;8.480;2022-11-15T01:12:18;11.40;99.90
41630;DHT22;27322;49.488;8.480;2022-11-15T01:14:43;11.50;99.90
41630;DHT22;27322;49.488;8.480;2022-11-15T01:17:09;11.50;99.90
41630;DHT22;27322;49.488;8.480;2022-11-15T01:19:34;11.50;99.90
41630;DHT22;27322;49.488;8.480;2022-11-15T01:22:00;11.50;99.90
41630;DHT22;27322;49.488;8.480;2022-11-15T01:24:26;11.50;99.90
41630;DHT22;27322;49.488;8.480;2022-11-15T01:26:51;11.60;99.90
41630;DHT22;27322;49.488;8.480;2022-11-15T01:29:17;11.50;99.90
41630;DHT22;27322;49.488;8.480;2022-11-15T01:31:42;11.60;99.90
41630;DHT22;27322;49.488;8.480;2022-11-15T01:34:08;11.60;99.90
41630;DHT22;27322;49.488;8.480;2022-11-15T01:36:34;11.60;99.90
41630;DHT22;27322;49.488;8.480;2022-11-15T01:38:59;11.60;99.90
41630;DHT22;27322;49.488;8.480;2022-11-15T01:41:31;11.70;99.90
41630;DHT22;27322;49.488;8.480;2022-11-15T01:47:04;11.70;99.90
41630;DHT22;27322;49.488;8.480;2022-11-15T01:49:34;11.70;99.90
41630;DHT22;27322;49.488;8.480;2022-11-15T01:52:02;11.70;99.90
41630;DHT22;27322;49.488;8.480;2022-11-15T01:54:29;11.70;99.90
41630;DHT22;27322;49.488;8.480;2022-11-15T01:56:59;11.60;99.90
41630;DHT22;27322;49.488;8.480;2022-11-15T01:59:26;11.60;99.90
41630;DHT22;27322;49.488;8.480;2022-11-15T02:01:52;11.60;99.90
41630;DHT22;27322;49.488;8.480;2022-11-15T02:04:32;11.60;99.90
41630;DHT22;27322;49.488;8.480;2022-11-15T02:07:01;11.60;99.90
41630;DHT22;27322;49.488;8.480;2022-11-15T02:09:27;11.60;99.90
41630;DHT22;27322;49.488;8.480;2022-11-15T02:11:54;11.60;99.90
41630;DHT22;27322;49.488;8.480;2022-11-15T02:14:21;11.60;99.90
41630;DHT22;27322;49.488;8.480;2022-11-15T02:17:08;11.60;99.90
41630;DHT22;27322;49.488;8.480;2022-11-15T02:22:37;11.50;99.90
41630;DHT22;27322;49.488;8.480;2022-11-15T02:25:36;11.50;99.90
41630;DHT22;27322;49.488;8.480;2022-11-15T02:34:05;11.50;99.90
41630;DHT22;27322;49.488;8.480;2022-11-15T02:36:35;11.50;99.90
41630;DHT22;27322;49.488;8.480;2022-11-15T02:41:54;11.50;99.90
41630;DHT22;27322;49.488;8.480;2022-11-15T02:44:32;11.50;99.90
41630;DHT22;27322;49.488;8.480;2022-11-15T02:47:06;11.50;99.90
41630;DHT22;27322;49.488;8.480;2022-11-15T02:50:03;11.50;99.90
41630;DHT22;27322;49.488;8.480;2022-11-15T02:52:29;11.50;99.90
41630;DHT22;27322;49.488;8.480;2022-11-15T02:55:00;11.50;99.90
41630;DHT22;27322;49.488;8.480;2022-11-15T03:00:12;11.50;99.90
41630;DHT22;27322;49.488;8.480;2022-11-15T03:05:37;11.50;99.90
41630;DHT22;27322;49.488;8.480;2022-11-15T03:11:14;11.50;99.90
41630;DHT22;27322;49.488;8.480;2022-11-15T03:16:40;11.50;99.90
41630;DHT22;27322;49.488;8.480;2022-11-15T03:19:17;11.50;99.90
41630;DHT22;27322;49.488;8.480;2022-11-15T03:21:46;11.50;99.90
41630;DHT22;27322;49.488;8.480;2022-11-15T03:24:14;11.50;99.90
41630;DHT22;27322;49.488;8.480;2022-11-15T03:26:44;11.50;99.90
41630;DHT22;27322;49.488;8.480;2022-11-15T03:29:20;11.50;99.90
41630;DHT22;27322;49.488;8.480;2022-11-15T03:31:53;11.50;99.90
41630;DHT22;27322;49.488;8.480;2022-11-15T03:34:32;11.40;99.90
41630;DHT22;27322;49.488;8.480;2022-11-15T03:36:59;11.50;99.90
41630;DHT22;27322;49.488;8.480;2022-11-15T03:39:25;11.50;99.90
41630;DHT22;27322;49.488;8.480;2022-11-15T03:49:34;11.50;99.90
41630;DHT22;27322;49.488;8.480;2022-11-15T03:52:02;11.50;99.90
41630;DHT22;27322;49.488;8.480;2022-11-15T03:54:29;11.50;99.90
41630;DHT22;27322;49.488;8.480;2022-11-15T03:56:54;11.50;99.90
41630;DHT22;27322;49.488;8.480;2022-11-15T03:59:20;11.50;99.90
41630;DHT22;27322;49.488;8.480;2022-11-15T04:01:46;11.50;99.90
41630;DHT22;27322;49.488;8.480;2022-11-15T04:04:11;11.50;99.90
41630;DHT22;27322;49.488;8.480;2022-11-15T04:06:37;11.50;99.90
41630;DHT22;27322;49.488;8.480;2022-11-15T04:09:03;11.50;99.90
41630;DHT22;27322;49.488;8.480;2022-11-15T04:11:29;11.50;99.90
41630;DHT22;27322;49.488;8.480;2022-11-15T04:13:54;11.50;99.90
41630;DHT22;27322;49.488;8.480;2022-11-15T04:16:20;11.50;99.90
41630;DHT22;27322;49.488;8.480;2022-11-15T04:18:45;11.60;99.90
41630;DHT22;27322;49.488;8.480;2022-11-15T04:21:31;11.60;99.90
41630;DHT22;27322;49.488;8.480;2022-11-15T04:24:15;11.60;99.90
41630;DHT22;27322;49.488;8.480;2022-11-15T04:26:41;11.60;99.90
41630;DHT22;27322;49.488;8.480;2022-11-15T04:29:06;11.60;99.90
41630;DHT22;27322;49.488;8.480;2022-11-15T04:31:50;11.70;99.90
41630;DHT22;27322;49.488;8.480;2022-11-15T04:34:16;11.70;99.90
41630;DHT22;27322;49.488;8.480;2022-11-15T04:36:41;11.70;99.90
41630;DHT22;27322;49.488;8.480;2022-11-15T04:39:25;11.70;99.90
41630;DHT22;27322;49.488;8.480;2022-11-15T04:41:51;11.70;99.90
41630;DHT22;27322;49.488;8.480;2022-11-15T04:44:17;11.70;99.90
41630;DHT22;27322;49.488;8.480;2022-11-15T04:46:42;11.70;99.90
41630;DHT22;27322;49.488;8.480;2022-11-15T04:49:08;11.70;99.90
41630;DHT22;27322;49.488;8.480;2022-11-15T04:51:34;11.70;99.90
41630;DHT22;27322;49.488;8.480;2022-11-15T04:53:59;11.70;99.90
41630;DHT22;27322;49.488;8.480;2022-11-15T04:56:25;11.70;99.90
41630;DHT22;27322;49.488;8.480;2022-11-15T04:58:50;11.70;99.90
41630;DHT22;27322;49.488;8.480;2022-11-15T05:01:16;11.70;99.90
41630;DHT22;27322;49.488;8.480;2022-11-15T05:03:43;11.70;99.90
41630;DHT22;27322;49.488;8.480;2022-11-15T05:06:28;11.70;99.90
41630;DHT22;27322;49.488;8.480;2022-11-15T05:08:54;11.70;99.90
41630;DHT22;27322;49.488;8.480;2022-11-15T05:11:20;11.70;99.90
41630;DHT22;27322;49.488;8.480;2022-11-15T05:13:46;11.70;99.90
41630;DHT22;27322;49.488;8.480;2022-11-15T05:16:12;11.70;99.90
41630;DHT22;27322;49.488;8.480;2022-11-15T05:18:37;11.70;99.90
41630;DHT22;27322;49.488;8.480;2022-11-15T05:21:10;11.70;99.90
41630;DHT22;27322;49.488;8.480;2022-11-15T05:23:36;11.70;99.90
41630;DHT22;27322;49.488;8.480;2022-11-15T05:26:03;11.70;99.90
41630;DHT22;27322;49.488;8.480;2022-11-15T05:28:30;11.70;99.90
41630;DHT22;27322;49.488;8.480;2022-11-15T05:31:28;11.60;99.90
41630;DHT22;27322;49.488;8.480;2022-11-15T05:33:55;11.70;99.90
41630;DHT22;27322;49.488;8.480;2022-11-15T05:36:38;11.70;99.90
41630;DHT22;27322;49.488;8.480;2022-11-15T05:39:06;11.70;99.90
41630;DHT22;27322;49.488;8.480;2022-11-15T05:41:48;11.70;99.90
41630;DHT22;27322;49.488;8.480;2022-11-15T05:44:17;11.70;99.90
41630;DHT22;27322;49.488;8.480;2022-11-15T05:46:44;11.70;99.90
41630;DHT22;27322;49.488;8.480;2022-11-15T05:49:12;11.70;99.90
41630;DHT22;27322;49.488;8.480;2022-11-15T05:51:39;11.70;99.90
41630;DHT22;27322;49.488;8.480;2022-11-15T05:54:05;11.60;99.90
41630;DHT22;27322;49.488;8.480;2022-11-15T05:56:31;11.70;99.90
41630;DHT22;27322;49.488;8.480;2022-11-15T05:58:58;11.70;99.90
41630;DHT22;27322;49.488;8.480;2022-11-15T06:01:25;11.70;99.90
41630;DHT22;27322;49.488;8.480;2022-11-15T06:03:51;11.70;99.90
41630;DHT22;27322;49.488;8.480;2022-11-15T06:06:17;11.60;99.90
41630;DHT22;27322;49.488;8.480;2022-11-15T06:08:42;11.70;99.90
41630;DHT22;27322;49.488;8.480;2022-11-15T06:11:08;11.70;99.90
41630;DHT22;27322;49.488;8.480;2022-11-15T06:13:34;11.70;99.90
41630;DHT22;27322;49.488;8.480;2022-11-15T06:16:00;11.60;99.90
41630;DHT22;27322;49.488;8.480;2022-11-15T06:18:26;11.60;99.90
41630;DHT22;27322;49.488;8.480;2022-11-15T06:20:51;11.60;99.90
41630;DHT22;27322;49.488;8.480;2022-11-15T06:23:17;11.60;99.90
41630;DHT22;27322;49.488;8.480;2022-11-15T06:25:43;11.60;99.90
41630;DHT22;27322;49.488;8.480;2022-11-15T06:28:08;11.60;99.90
41630;DHT22;27322;49.488;8.480;2022-11-15T06:30:34;11.60;99.90
41630;DHT22;27322;49.488;8.480;2022-11-15T06:33:04;11.60;99.90
41630;DHT22;27322;49.488;8.480;2022-11-15T06:35:33;11.60;99.90
41630;DHT22;27322;49.488;8.480;2022-11-15T06:38:05;11.60;99.90
41630;DHT22;27322;49.488;8.480;2022-11-15T06:40:33;11.60;99.90
41630;DHT22;27322;49.488;8.480;2022-11-15T06:42:59;11.60;99.90
41630;DHT22;27322;49.488;8.480;2022-11-15T06:45:25;11.60;99.90
41630;DHT22;27322;49.488;8.480;2022-11-15T06:47:51;11.60;99.90
41630;DHT22;27322;49.488;8.480;2022-11-15T06:50:17;11.60;99.90
41630;DHT22;27322;49.488;8.480;2022-11-15T06:52:42;11.60;99.90
41630;DHT22;27322;49.488;8.480;2022-11-15T06:55:08;11.60;99.90
41630;DHT22;27322;49.488;8.480;2022-11-15T06:57:34;11.60;99.90
41630;DHT22;27322;49.488;8.480;2022-11-15T07:00:00;11.60;99.90
41630;DHT22;27322;49.488;8.480;2022-11-15T07:02:25;11.60;99.90
41630;DHT22;27322;49.488;8.480;2022-11-15T07:04:51;11.60;99.90
41630;DHT22;27322;49.488;8.480;2022-11-15T07:07:16;11.60;99.90
41630;DHT22;27322;49.488;8.480;2022-11-15T07:09:42;11.60;99.90
41630;DHT22;27322;49.488;8.480;2022-11-15T07:12:08;11.60;99.90
41630;DHT22;27322;49.488;8.480;2022-11-15T07:14:33;11.60;99.90
41630;DHT22;27322;49.488;8.480;2022-11-15T07:16:59;11.60;99.90
41630;DHT22;27322;49.488;8.480;2022-11-15T07:19:25;11.60;99.90
41630;DHT22;27322;49.488;8.480;2022-11-15T07:21:50;11.60;99.90
41630;DHT22;27322;49.488;8.480;2022-11-15T07:24:16;11.60;99.90
41630;DHT22;27322;49.488;8.480;2022-11-15T07:26:42;11.60;99.90
41630;DHT22;27322;49.488;8.480;2022-11-15T07:29:07;11.60;99.90
41630;DHT22;27322;49.488;8.480;2022-11-15T07:31:33;11.60;99.90
41630;DHT22;27322;49.488;8.480;2022-11-15T07:33:58;11.60;99.90
41630;DHT22;27322;49.488;8.480;2022-11-15T07:36:24;11.60;99.90
41630;DHT22;27322;49.488;8.480;2022-11-15T07:38:50;11.60;99.90
41630;DHT22;27322;49.488;8.480;2022-11-15T07:41:15;11.60;99.90
41630;DHT22;27322;49.488;8.480;2022-11-15T07:43:41;11.70;99.90
41630;DHT22;27322;49.488;8.480;2022-11-15T07:46:08;11.70;99.90
41630;DHT22;27322;49.488;8.480;2022-11-15T07:48:38;11.70;99.90
41630;DHT22;27322;49.488;8.480;2022-11-15T07:51:06;11.70;99.90
41630;DHT22;27322;49.488;8.480;2022-11-15T07:53:32;11.70;99.90
41630;DHT22;27322;49.488;8.480;2022-11-15T07:55:58;11.70;99.90
41630;DHT22;27322;49.488;8.480;2022-11-15T07:58:23;11.70;99.90
41630;DHT22;27322;49.488;8.480;2022-11-15T08:00:49;11.70;99.90
41630;DHT22;27322;49.488;8.480;2022-11-15T08:03:16;11.70;99.90
41630;DHT22;27322;49.488;8.480;2022-11-15T08:05:42;11.70;99.90
41630;DHT22;27322;49.488;8.480;2022-11-15T08:08:10;11.80;99.90
41630;DHT22;27322;49.488;8.480;2022-11-15T08:10:36;11.80;99.90
41630;DHT22;27322;49.488;8.480;2022-11-15T08:13:09;11.80;99.90
41630;DHT22;27322;49.488;8.480;2022-11-15T08:15:36;11.80;99.90
41630;DHT22;27322;49.488;8.480;2022-11-15T08:18:05;11.80;99.90
41630;DHT22;27322;49.488;8.480;2022-11-15T08:20:31;11.80;99.90
41630;DHT22;27322;49.488;8.480;2022-11-15T08:23:00;11.80;99.90
41630;DHT22;27322;49.488;8.480;2022-11-15T08:25:28;11.80;99.90
41630;DHT22;27322;49.488;8.480;2022-11-15T08:27:55;11.90;99.90
41630;DHT22;27322;49.488;8.480;2022-11-15T08:30:21;11.90;99.90
41630;DHT22;27322;49.488;8.480;2022-11-15T08:32:48;11.90;99.90
41630;DHT22;27322;49.488;8.480;2022-11-15T08:35:14;11.90;99.90
41630;DHT22;27322;49.488;8.480;2022-11-15T08:37:40;12.00;99.90
41630;DHT22;27322;49.488;8.480;2022-11-15T08:40:06;11.90;99.90
41630;DHT22;27322;49.488;8.480;2022-11-15T08:42:32;12.00;99.90
41630;DHT22;27322;49.488;8.480;2022-11-15T08:44:58;12.00;99.90
41630;DHT22;27322;49.488;8.480;2022-11-15T08:47:24;12.00;99.90
41630;DHT22;27322;49.488;8.480;2022-11-15T08:49:50;12.00;99.90
41630;DHT22;27322;49.488;8.480;2022-11-15T08:52:15;12.00;99.90
41630;DHT22;27322;49.488;8.480;2022-11-15T08:54:41;12.00;99.90
41630;DHT22;27322;49.488;8.480;2022-11-15T08:57:06;12.00;99.90
41630;DHT22;27322;49.488;8.480;2022-11-15T08:59:32;12.00;99.90
41630;DHT22;27322;49.488;8.480;2022-11-15T09:01:58;12.00;99.90
41630;DHT22;27322;49.488;8.480;2022-11-15T09:04:23;12.10;99.90
41630;DHT22;27322;49.488;8.480;2022-11-15T09:06:49;12.00;99.90
41630;DHT22;27322;49.488;8.480;2022-11-15T09:09:14;12.10;99.90
41630;DHT22;27322;49.488;8.480;2022-11-15T09:11:40;12.10;99.90
41630;DHT22;27322;49.488;8.480;2022-11-15T09:14:06;12.10;99.90
41630;DHT22;27322;49.488;8.480;2022-11-15T09:16:31;12.10;99.90
41630;DHT22;27322;49.488;8.480;2022-11-15T09:18:57;12.10;99.90
41630;DHT22;27322;49.488;8.480;2022-11-15T09:21:22;12.10;99.90
41630;DHT22;27322;49.488;8.480;2022-11-15T09:23:51;12.10;99.90
41630;DHT22;27322;49.488;8.480;2022-11-15T09:26:18;12.10;99.90
41630;DHT22;27322;49.488;8.480;2022-11-15T09:28:43;12.10;99.90
41630;DHT22;27322;49.488;8.480;2022-11-15T09:31:09;12.10;99.90
41630;DHT22;27322;49.488;8.480;2022-11-15T09:33:35;12.20;99.90
41630;DHT22;27322;49.488;8.480;2022-11-15T09:36:07;12.20;99.90
41630;DHT22;27322;49.488;8.480;2022-11-15T09:38:33;12.20;99.90
41630;DHT22;27322;49.488;8.480;2022-11-15T09:47:21;12.40;99.90
41630;DHT22;27322;49.488;8.480;2022-11-15T09:49:58;12.40;99.90
41630;DHT22;27322;49.488;8.480;2022-11-15T09:52:24;12.40;99.90
41630;DHT22;27322;49.488;8.480;2022-11-15T09:54:51;12.40;99.90
41630;DHT22;27322;49.488;8.480;2022-11-15T10:03:16;12.50;99.90
41630;DHT22;27322;49.488;8.480;2022-11-15T10:05:47;12.50;99.90
41630;DHT22;27322;49.488;8.480;2022-11-15T10:08:29;12.60;99.90
41630;DHT22;27322;49.488;8.480;2022-11-15T10:10:58;12.60;99.90
41630;DHT22;27322;49.488;8.480;2022-11-15T10:13:26;12.60;99.90
41630;DHT22;27322;49.488;8.480;2022-11-15T10:21:20;12.60;99.90
41630;DHT22;27322;49.488;8.480;2022-11-15T10:23:46;12.70;99.90
41630;DHT22;27322;49.488;8.480;2022-11-15T10:26:16;12.70;99.90
41630;DHT22;27322;49.488;8.480;2022-11-15T10:28:42;12.70;99.90
41630;DHT22;27322;49.488;8.480;2022-11-15T10:31:28;12.70;99.90
41630;DHT22;27322;49.488;8.480;2022-11-15T10:34:20;12.70;99.90
41630;DHT22;27322;49.488;8.480;2022-11-15T10:36:56;12.70;99.90
41630;DHT22;27322;49.488;8.480;2022-11-15T10:39:23;12.70;99.90
41630;DHT22;27322;49.488;8.480;2022-11-15T10:41:49;12.70;99.90
41630;DHT22;27322;49.488;8.480;2022-11-15T10:44:31;12.70;99.90
41630;DHT22;27322;49.488;8.480;2022-11-15T10:49:23;12.80;99.90
41630;DHT22;27322;49.488;8.480;2022-11-15T10:56:59;12.80;99.90
41630;DHT22;27322;49.488;8.480;2022-11-15T10:59:35;12.90;99.90
41630;DHT22;27322;49.488;8.480;2022-11-15T11:02:01;12.90;99.90
41630;DHT22;27322;49.488;8.480;2022-11-15T11:04:27;12.90;99.90
41630;DHT22;27322;49.488;8.480;2022-11-15T11:11:50;12.90;99.90
41630;DHT22;27322;49.488;8.480;2022-11-15T11:14:21;12.90;99.90
41630;DHT22;27322;49.488;8.480;2022-11-15T11:16:52;12.90;99.90
41630;DHT22;27322;49.488;8.480;2022-11-15T11:30:02;12.90;99.90
41630;DHT22;27322;49.488;8.480;2022-11-15T11:32:50;13.00;99.90
41630;DHT22;27322;49.488;8.480;2022-11-15T11:40:50;13.10;99.90
41630;DHT22;27322;49.488;8.480;2022-11-15T11:48:43;13.10;99.90
41630;DHT22;27322;49.488;8.480;2022-11-15T11:53:58;13.10;99.90
41630;DHT22;27322;49.488;8.480;2022-11-15T11:56:32;13.20;99.90
41630;DHT22;27322;49.488;8.480;2022-11-15T11:59:28;13.20;99.90
41630;DHT22;27322;49.488;8.480;2022-11-15T12:01:57;13.20;99.90
41630;DHT22;27322;49.488;8.480;2022-11-15T12:04:39;13.30;99.90
41630;DHT22;27322;49.488;8.480;2022-11-15T12:07:23;13.30;99.90
41630;DHT22;27322;49.488;8.480;2022-11-15T12:10:03;13.30;99.90
41630;DHT22;27322;49.488;8.480;2022-11-15T12:15:10;13.30;99.90
41630;DHT22;27322;49.488;8.480;2022-11-15T12:17:40;13.30;99.90
41630;DHT22;27322;49.488;8.480;2022-11-15T12:20:23;13.30;99.90
41630;DHT22;27322;49.488;8.480;2022-11-15T12:25:36;13.40;99.90
41630;DHT22;27322;49.488;8.480;2022-11-15T12:30:50;13.40;99.90
41630;DHT22;27322;49.488;8.480;2022-11-15T12:33:34;13.40;99.90
41630;DHT22;27322;49.488;8.480;2022-11-15T12:36:49;13.40;99.90
41630;DHT22;27322;49.488;8.480;2022-11-15T12:38:59;13.50;99.90
41630;DHT22;27322;49.488;8.480;2022-11-15T12:41:30;13.50;99.90
41630;DHT22;27322;49.488;8.480;2022-11-15T12:43:57;13.50;99.90
41630;DHT22;27322;49.488;8.480;2022-11-15T12:49:02;13.50;99.90
41630;DHT22;27322;49.488;8.480;2022-11-15T12:59:53;13.50;99.90
41630;DHT22;27322;49.488;8.480;2022-11-15T13:02:22;13.50;99.90
41630;DHT22;27322;49.488;8.480;2022-11-15T13:04:50;13.50;99.90
41630;DHT22;27322;49.488;8.480;2022-11-15T13:10:45;13.50;99.90
41630;DHT22;27322;49.488;8.480;2022-11-15T13:17:51;13.50;99.90
41630;DHT22;27322;49.488;8.480;2022-11-15T13:20:30;13.50;99.90
41630;DHT22;27322;49.488;8.480;2022-11-15T13:23:11;13.50;99.90
41630;DHT22;27322;49.488;8.480;2022-11-15T13:28:39;13.50;99.90
41630;DHT22;27322;49.488;8.480;2022-11-15T13:31:35;13.50;99.90
41630;DHT22;27322;49.488;8.480;2022-11-15T13:34:24;13.50;99.90
41630;DHT22;27322;49.488;8.480;2022-11-15T13:36:51;13.50;99.90
41630;DHT22;27322;49.488;8.480;2022-11-15T13:41:56;13.50;99.90
41630;DHT22;27322;49.488;8.480;2022-11-15T13:44:33;13.50;99.90
41630;DHT22;27322;49.488;8.480;2022-11-15T13:47:02;13.50;99.90
41630;DHT22;27322;49.488;8.480;2022-11-15T13:49:30;13.50;99.90
41630;DHT22;27322;49.488;8.480;2022-11-15T13:51:57;13.50;99.90
41630;DHT22;27322;49.488;8.480;2022-11-15T13:57:21;13.50;99.90
41630;DHT22;27322;49.488;8.480;2022-11-15T13:59:49;13.50;99.90
41630;DHT22;27322;49.488;8.480;2022-11-15T14:02:25;13.50;99.90
41630;DHT22;27322;49.488;8.480;2022-11-15T14:04:55;13.60;99.90
41630;DHT22;27322;49.488;8.480;2022-11-15T14:07:24;13.60;99.90
41630;DHT22;27322;49.488;8.480;2022-11-15T14:09:51;13.60;99.90
41630;DHT22;27322;49.488;8.480;2022-11-15T14:12:30;13.60;99.90
41630;DHT22;27322;49.488;8.480;2022-11-15T14:14:56;13.60;99.90
41630;DHT22;27322;49.488;8.480;2022-11-15T14:19:54;13.50;99.90
41630;DHT22;27322;49.488;8.480;2022-11-15T14:22:25;13.50;99.90
41630;DHT22;27322;49.488;8.480;2022-11-15T14:25:17;13.50;99.90
41630;DHT22;27322;49.488;8.480;2022-11-15T14:30:48;13.50;99.90
41630;DHT22;27322;49.488;8.480;2022-11-15T14:35:55;13.50;99.90
41630;DHT22;27322;49.488;8.480;2022-11-15T14:38:23;13.50;99.90
41630;DHT22;27322;49.488;8.480;2022-11-15T14:40:49;13.50;99.90
41630;DHT22;27322;49.488;8.480;2022-11-15T14:43:15;13.50;99.90
41630;DHT22;27322;49.488;8.480;2022-11-15T14:45:41;13.50;99.90
41630;DHT22;27322;49.488;8.480;2022-11-15T14:48:07;13.40;99.90
41630;DHT22;27322;49.488;8.480;2022-11-15T14:50:33;13.40;99.90
41630;DHT22;27322;49.488;8.480;2022-11-15T14:52:59;13.40;99.90
41630;DHT22;27322;49.488;8.480;2022-11-15T14:55:26;13.40;99.90
41630;DHT22;27322;49.488;8.480;2022-11-15T14:57:54;13.40;99.90
41630;DHT22;27322;49.488;8.480;2022-11-15T15:00:20;13.40;99.90
41630;DHT22;27322;49.488;8.480;2022-11-15T15:02:46;13.40;99.90
41630;DHT22;27322;49.488;8.480;2022-11-15T15:05:21;13.40;99.90
41630;DHT22;27322;49.488;8.480;2022-11-15T15:07:48;13.30;99.90
41630;DHT22;27322;49.488;8.480;2022-11-15T15:10:16;13.30;99.90
41630;DHT22;27322;49.488;8.480;2022-11-15T15:12:42;13.30;99.90
41630;DHT22;27322;49.488;8.480;2022-11-15T15:15:16;13.30;99.90
41630;DHT22;27322;49.488;8.480;2022-11-15T15:17:42;13.30;99.90
41630;DHT22;27322;49.488;8.480;2022-11-15T15:20:08;13.30;99.90
41630;DHT22;27322;49.488;8.480;2022-11-15T15:22:34;13.30;99.90
41630;DHT22;27322;49.488;8.480;2022-11-15T15:24:59;13.30;99.90
41630;DHT22;27322;49.488;8.480;2022-11-15T15:27:25;13.30;99.90
41630;DHT22;27322;49.488;8.480;2022-11-15T15:29:51;13.30;99.90
41630;DHT22;27322;49.488;8.480;2022-11-15T15:32:16;13.30;99.90
41630;DHT22;27322;49.488;8.480;2022-11-15T15:34:42;13.20;99.90
41630;DHT22;27322;49.488;8.480;2022-11-15T15:37:23;13.20;99.90
41630;DHT22;27322;49.488;8.480;2022-11-15T15:39:53;13.30;99.90
41630;DHT22;27322;49.488;8.480;2022-11-15T15:42:20;13.20;99.90
41630;DHT22;27322;49.488;8.480;2022-11-15T15:44:47;13.20;99.90
41630;DHT22;27322;49.488;8.480;2022-11-15T15:47:23;13.20;99.90
41630;DHT22;27322;49.488;8.480;2022-11-15T15:49:51;13.20;99.90
41630;DHT22;27322;49.488;8.480;2022-11-15T15:52:17;13.20;99.90
41630;DHT22;27322;49.488;8.480;2022-11-15T15:54:43;13.20;99.90
41630;DHT22;27322;49.488;8.480;2022-11-15T15:57:11;13.20;99.90
41630;DHT22;27322;49.488;8.480;2022-11-15T15:59:37;13.20;99.90
41630;DHT22;27322;49.488;8.480;2022-11-15T16:02:03;13.20;99.90
41630;DHT22;27322;49.488;8.480;2022-11-15T16:04:29;13.10;99.90
41630;DHT22;27322;49.488;8.480;2022-11-15T16:07:01;13.10;99.90
41630;DHT22;27322;49.488;8.480;2022-11-15T16:09:27;13.10;99.90
41630;DHT22;27322;49.488;8.480;2022-11-15T16:12:11;13.10;99.90
41630;DHT22;27322;49.488;8.480;2022-11-15T16:14:37;13.10;99.90
41630;DHT22;27322;49.488;8.480;2022-11-15T16:17:03;13.10;99.90
41630;DHT22;27322;49.488;8.480;2022-11-15T16:19:29;13.10;99.90
41630;DHT22;27322;49.488;8.480;2022-11-15T16:21:54;13.10;99.90
41630;DHT22;27322;49.488;8.480;2022-11-15T16:24:21;13.10;99.90
41630;DHT22;27322;49.488;8.480;2022-11-15T16:26:47;13.00;99.90
41630;DHT22;27322;49.488;8.480;2022-11-15T16:29:13;13.10;99.90
41630;DHT22;27322;49.488;8.480;2022-11-15T16:31:39;13.00;99.90
41630;DHT22;27322;49.488;8.480;2022-11-15T16:34:04;13.10;99.90
41630;DHT22;27322;49.488;8.480;2022-11-15T16:36:33;13.00;99.90
41630;DHT22;27322;49.488;8.480;2022-11-15T16:38:59;13.00;99.90
41630;DHT22;27322;49.488;8.480;2022-11-15T16:41:26;13.10;99.90
41630;DHT22;27322;49.488;8.480;2022-11-15T16:43:51;13.10;99.90
41630;DHT22;27322;49.488;8.480;2022-11-15T16:46:24;13.10;99.90
41630;DHT22;27322;49.488;8.480;2022-11-15T16:48:51;13.10;99.90
41630;DHT22;27322;49.488;8.480;2022-11-15T16:51:18;13.10;99.90
41630;DHT22;27322;49.488;8.480;2022-11-15T16:53:44;13.10;99.90
41630;DHT22;27322;49.488;8.480;2022-11-15T16:56:29;13.10;99.90
41630;DHT22;27322;49.488;8.480;2022-11-15T16:58:56;13.10;99.90
41630;DHT22;27322;49.488;8.480;2022-11-15T17:03:50;13.10;99.90
41630;DHT22;27322;49.488;8.480;2022-11-15T17:06:19;13.10;99.90
41630;DHT22;27322;49.488;8.480;2022-11-15T17:08:45;13.10;99.90
41630;DHT22;27322;49.488;8.480;2022-11-15T17:11:14;13.10;99.90
41630;DHT22;27322;49.488;8.480;2022-11-15T17:13:40;13.10;99.90
41630;DHT22;27322;49.488;8.480;2022-11-15T17:16:08;13.10;99.90
41630;DHT22;27322;49.488;8.480;2022-11-15T17:18:35;13.10;99.90
41630;DHT22;27322;49.488;8.480;2022-11-15T17:21:10;13.10;99.90
41630;DHT22;27322;49.488;8.480;2022-11-15T17:23:37;13.10;99.90
41630;DHT22;27322;49.488;8.480;2022-11-15T17:26:03;13.10;99.90
41630;DHT22;27322;49.488;8.480;2022-11-15T17:28:33;13.10;99.90
41630;DHT22;27322;49.488;8.480;2022-11-15T17:31:00;13.10;99.90
41630;DHT22;27322;49.488;8.480;2022-11-15T17:33:25;13.10;99.90
41630;DHT22;27322;49.488;8.480;2022-11-15T17:35:59;13.00;99.90
41630;DHT22;27322;49.488;8.480;2022-11-15T17:38:25;13.00;99.90
41630;DHT22;27322;49.488;8.480;2022-11-15T17:41:04;13.00;99.90
41630;DHT22;27322;49.488;8.480;2022-11-15T17:43:31;13.00;99.90
41630;DHT22;27322;49.488;8.480;2022-11-15T17:45:59;13.00;99.90
41630;DHT22;27322;49.488;8.480;2022-11-15T17:48:25;13.00;99.90
41630;DHT22;27322;49.488;8.480;2022-11-15T17:50:59;13.00;99.90
41630;DHT22;27322;49.488;8.480;2022-11-15T17:53:25;12.90;99.90
41630;DHT22;27322;49.488;8.480;2022-11-15T17:55:51;13.00;99.90